createdAt,value
2022-09-16T00:00:04.585Z,988.36
2022-09-16T00:01:04.603Z,988.34
2022-09-16T00:02:04.583Z,988.41
2022-09-16T00:03:04.541Z,988.40
2022-09-16T00:04:04.526Z,988.37
2022-09-16T00:05:04.509Z,988.36
2022-09-16T00:06:04.505Z,988.36
2022-09-16T00:07:04.479Z,988.39
2022-09-16T00:08:04.462Z,988.44
2022-09-16T00:09:04.448Z,988.43
2022-09-16T00:10:04.432Z,988.36
2022-09-16T00:11:04.419Z,988.35
2022-09-16T00:12:04.403Z,988.37
2022-09-16T00:13:04.387Z,988.36
2022-09-16T00:14:04.375Z,988.35
2022-09-16T00:15:04.356Z,988.38
2022-09-16T00:16:04.361Z,988.34
2022-09-16T00:17:04.329Z,988.38
2022-09-16T00:18:04.316Z,988.35
2022-09-16T00:19:04.299Z,988.33
2022-09-16T00:20:04.277Z,988.37
2022-09-16T00:21:04.266Z,988.37
2022-09-16T00:22:04.253Z,988.34
2022-09-16T00:23:04.234Z,988.34
2022-09-16T00:24:04.219Z,988.31
2022-09-16T00:25:04.211Z,988.32
2022-09-16T00:26:04.197Z,988.28
2022-09-16T00:27:04.174Z,988.28
2022-09-16T00:28:04.159Z,988.29
2022-09-16T00:29:04.144Z,988.28
2022-09-16T00:30:04.129Z,988.29
2022-09-16T00:31:04.181Z,988.24
2022-09-16T00:32:04.096Z,988.32
2022-09-16T00:33:04.083Z,988.25
2022-09-16T00:34:04.066Z,988.23
2022-09-16T00:35:04.055Z,988.29
2022-09-16T00:36:04.037Z,988.23
2022-09-16T00:37:04.032Z,988.24
2022-09-16T00:38:04.013Z,988.24
2022-09-16T00:39:03.990Z,988.25
2022-09-16T00:40:04.031Z,988.29
2022-09-16T00:41:03.958Z,988.23
2022-09-16T00:42:03.953Z,988.28
2022-09-16T00:43:03.937Z,988.21
2022-09-16T00:44:03.923Z,988.29
2022-09-16T00:45:03.903Z,988.27
2022-09-16T00:46:03.883Z,988.26
2022-09-16T00:47:03.967Z,988.24
2022-09-16T00:48:03.853Z,988.23
2022-09-16T00:49:03.839Z,988.18
2022-09-16T00:50:03.824Z,988.23
2022-09-16T00:51:03.809Z,988.19
2022-09-16T00:52:03.792Z,988.21
2022-09-16T00:53:03.777Z,988.18
2022-09-16T00:54:03.768Z,988.22
2022-09-16T00:55:03.752Z,988.18
2022-09-16T00:56:03.732Z,988.22
2022-09-16T00:57:03.720Z,988.18
2022-09-16T00:58:03.702Z,988.23
2022-09-16T00:59:03.687Z,988.20
2022-09-16T01:00:03.671Z,988.20
2022-09-16T01:01:03.724Z,988.17
2022-09-16T01:02:03.684Z,988.20
2022-09-16T01:03:03.626Z,988.20
2022-09-16T01:04:03.608Z,988.18
2022-09-16T01:05:03.603Z,988.22
2022-09-16T01:06:03.579Z,988.17
2022-09-16T01:07:03.566Z,988.18
2022-09-16T01:08:03.552Z,988.14
2022-09-16T01:09:03.537Z,988.16
2022-09-16T01:10:03.526Z,988.13
2022-09-16T01:11:03.507Z,988.15
2022-09-16T01:12:03.490Z,988.12
2022-09-16T01:13:03.475Z,988.15
2022-09-16T01:14:03.463Z,988.19
2022-09-16T01:15:03.449Z,988.19
2022-09-16T01:16:03.460Z,988.17
2022-09-16T01:17:03.413Z,988.21
2022-09-16T01:18:03.402Z,988.16
2022-09-16T01:19:03.383Z,988.12
2022-09-16T01:20:03.367Z,988.12
2022-09-16T01:21:03.361Z,988.13
2022-09-16T01:22:03.339Z,988.10
2022-09-16T01:23:03.322Z,988.13
2022-09-16T01:24:03.306Z,988.13
2022-09-16T01:25:03.301Z,988.11
2022-09-16T01:26:03.284Z,988.13
2022-09-16T01:27:03.263Z,988.13
2022-09-16T01:28:03.246Z,988.10
2022-09-16T01:29:03.233Z,988.14
2022-09-16T01:30:03.225Z,988.12
2022-09-16T01:31:03.254Z,988.12
2022-09-16T01:32:03.200Z,988.13
2022-09-16T01:33:03.204Z,988.16
2022-09-16T01:34:03.166Z,988.16
2022-09-16T01:35:03.163Z,988.14
2022-09-16T01:36:03.171Z,988.17
2022-09-16T01:37:03.113Z,988.20
2022-09-16T01:38:03.096Z,988.20
2022-09-16T01:39:03.085Z,988.18
2022-09-16T01:40:03.132Z,988.19
2022-09-16T01:41:03.050Z,988.19
2022-09-16T01:42:03.034Z,988.19
2022-09-16T01:43:03.019Z,988.17
2022-09-16T01:44:03.005Z,988.16
2022-09-16T01:45:02.993Z,988.14
2022-09-16T01:46:02.972Z,988.15
2022-09-16T01:47:02.962Z,988.17
2022-09-16T01:48:02.944Z,988.21
2022-09-16T01:49:02.930Z,988.26
2022-09-16T01:50:02.916Z,988.23
2022-09-16T01:51:02.898Z,988.21
2022-09-16T01:52:02.882Z,988.27
2022-09-16T01:53:02.865Z,988.18
2022-09-16T01:54:02.852Z,988.25
2022-09-16T01:55:02.837Z,988.20
2022-09-16T01:56:02.818Z,988.28
2022-09-16T01:57:02.809Z,988.28
2022-09-16T01:58:02.797Z,988.27
2022-09-16T01:59:02.777Z,988.26
2022-09-16T02:00:02.765Z,988.29
2022-09-16T02:01:02.763Z,988.29
2022-09-16T02:02:02.825Z,988.30
2022-09-16T02:03:02.736Z,988.32
2022-09-16T02:04:02.698Z,988.30
2022-09-16T02:05:02.687Z,988.30
2022-09-16T02:06:02.668Z,988.34
2022-09-16T02:07:02.656Z,988.35
2022-09-16T02:08:02.638Z,988.33
2022-09-16T02:09:02.624Z,988.31
2022-09-16T02:10:02.607Z,988.31
2022-09-16T02:11:02.592Z,988.31
2022-09-16T02:12:02.575Z,988.33
2022-09-16T02:13:02.567Z,988.32
2022-09-16T02:14:02.550Z,988.31
2022-09-16T02:15:02.532Z,988.33
2022-09-16T02:16:02.578Z,988.30
2022-09-16T02:17:02.508Z,988.29
2022-09-16T02:18:02.486Z,988.29
2022-09-16T02:19:02.473Z,988.26
2022-09-16T02:20:02.453Z,988.28
2022-09-16T02:21:02.439Z,988.26
2022-09-16T02:22:02.424Z,988.30
2022-09-16T02:23:02.410Z,988.24
2022-09-16T02:24:02.396Z,988.28
2022-09-16T02:25:02.379Z,988.23
2022-09-16T02:26:02.360Z,988.27
2022-09-16T02:27:02.351Z,988.23
2022-09-16T02:28:02.331Z,988.28
2022-09-16T02:29:02.317Z,988.24
2022-09-16T02:30:02.303Z,988.24
2022-09-16T02:31:02.321Z,988.22
2022-09-16T02:32:02.272Z,988.22
2022-09-16T02:33:02.260Z,988.23
2022-09-16T02:34:02.250Z,988.24
2022-09-16T02:35:02.225Z,988.23
2022-09-16T02:36:02.212Z,988.27
2022-09-16T02:37:02.195Z,988.27
2022-09-16T02:38:02.180Z,988.19
2022-09-16T02:39:02.166Z,988.22
2022-09-16T02:40:02.266Z,988.24
2022-09-16T02:41:02.133Z,988.19
2022-09-16T02:42:02.117Z,988.23
2022-09-16T02:43:02.104Z,988.22
2022-09-16T02:44:02.086Z,988.16
2022-09-16T02:45:02.075Z,988.23
2022-09-16T02:46:02.090Z,988.24
2022-09-16T02:47:02.040Z,988.21
2022-09-16T02:48:02.028Z,988.22
2022-09-16T02:49:02.014Z,988.21
2022-09-16T02:50:01.997Z,988.22
2022-09-16T02:51:01.982Z,988.18
2022-09-16T02:52:01.964Z,988.18
2022-09-16T02:53:01.951Z,988.16
2022-09-16T02:54:01.942Z,988.13
2022-09-16T02:55:01.920Z,988.07
2022-09-16T02:56:01.903Z,988.15
2022-09-16T02:57:01.891Z,988.18
2022-09-16T02:58:01.873Z,988.16
2022-09-16T02:59:01.864Z,988.24
2022-09-16T03:00:01.845Z,988.23
2022-09-16T03:01:01.834Z,988.23
2022-09-16T03:02:01.877Z,988.29
2022-09-16T03:03:01.837Z,988.26
2022-09-16T03:04:01.780Z,988.23
2022-09-16T03:05:01.766Z,988.22
2022-09-16T03:06:01.751Z,988.24
2022-09-16T03:07:01.735Z,988.14
2022-09-16T03:08:01.726Z,988.11
2022-09-16T03:09:01.706Z,988.08
2022-09-16T03:10:01.703Z,988.00
2022-09-16T03:11:01.675Z,987.99
2022-09-16T03:12:01.658Z,987.99
2022-09-16T03:13:01.649Z,988.03
2022-09-16T03:14:01.630Z,988.08
2022-09-16T03:15:01.612Z,988.15
2022-09-16T03:16:01.657Z,988.17
2022-09-16T03:17:01.586Z,988.21
2022-09-16T03:18:01.571Z,988.23
2022-09-16T03:19:01.558Z,988.22
2022-09-16T03:20:01.536Z,988.19
2022-09-16T03:21:01.530Z,988.18
2022-09-16T03:22:01.504Z,988.17
2022-09-16T03:23:01.491Z,988.13
2022-09-16T03:24:01.477Z,988.12
2022-09-16T03:25:01.461Z,988.07
2022-09-16T03:26:01.443Z,988.13
2022-09-16T03:27:01.428Z,988.13
2022-09-16T03:28:01.416Z,988.11
2022-09-16T03:29:01.399Z,988.14
2022-09-16T03:30:01.382Z,988.16
2022-09-16T03:31:01.386Z,988.16
2022-09-16T03:32:01.351Z,988.21
2022-09-16T03:33:01.344Z,988.17
2022-09-16T03:34:01.321Z,988.17
2022-09-16T03:35:01.307Z,988.22
2022-09-16T03:36:01.294Z,988.18
2022-09-16T03:37:01.281Z,988.18
2022-09-16T03:38:01.264Z,988.21
2022-09-16T03:39:01.248Z,988.21
2022-09-16T03:40:01.284Z,988.23
2022-09-16T03:41:01.220Z,988.21
2022-09-16T03:42:01.200Z,988.22
2022-09-16T03:43:01.183Z,988.22
2022-09-16T03:44:04.031Z,988.21
2022-09-16T03:45:01.157Z,988.22
2022-09-16T03:46:01.221Z,988.22
2022-09-16T03:47:01.122Z,988.15
2022-09-16T03:48:01.104Z,988.15
2022-09-16T03:49:01.092Z,988.13
2022-09-16T03:50:01.076Z,988.13
2022-09-16T03:51:01.062Z,988.17
2022-09-16T03:52:01.048Z,988.11
2022-09-16T03:53:01.029Z,988.10
2022-09-16T03:54:01.014Z,988.14
2022-09-16T03:55:00.998Z,988.13
2022-09-16T03:56:00.981Z,988.14
2022-09-16T03:57:00.972Z,988.12
2022-09-16T03:58:00.952Z,988.12
2022-09-16T03:59:00.936Z,988.13
2022-09-16T04:00:00.920Z,988.13
2022-09-16T04:01:00.907Z,988.11
2022-09-16T04:02:00.973Z,988.18
2022-09-16T04:03:00.901Z,988.18
2022-09-16T04:04:00.857Z,988.14
2022-09-16T04:05:00.843Z,988.11
2022-09-16T04:06:00.833Z,988.11
2022-09-16T04:07:00.812Z,988.13
2022-09-16T04:08:00.800Z,988.12
2022-09-16T04:09:00.803Z,988.15
2022-09-16T04:10:00.766Z,988.15
2022-09-16T04:11:00.751Z,988.13
2022-09-16T04:12:00.734Z,988.13
2022-09-16T04:13:00.741Z,988.10
2022-09-16T04:14:00.705Z,988.12
2022-09-16T04:15:01.131Z,988.10
2022-09-16T04:16:00.723Z,988.12
2022-09-16T04:17:00.657Z,988.08
2022-09-16T04:18:00.650Z,988.11
2022-09-16T04:19:00.625Z,988.11
2022-09-16T04:20:00.614Z,988.07
2022-09-16T04:21:00.613Z,988.10
2022-09-16T04:22:00.595Z,988.10
2022-09-16T04:23:00.564Z,988.10
2022-09-16T04:24:00.550Z,988.15
2022-09-16T04:25:00.534Z,988.14
2022-09-16T04:26:00.521Z,988.10
2022-09-16T04:27:00.500Z,988.11
2022-09-16T04:28:00.492Z,988.08
2022-09-16T04:29:00.473Z,988.04
2022-09-16T04:30:00.457Z,987.99
2022-09-16T04:31:00.478Z,988.00
2022-09-16T04:32:00.429Z,988.02
2022-09-16T04:33:00.418Z,988.05
2022-09-16T04:34:00.396Z,988.03
2022-09-16T04:35:00.380Z,988.01
2022-09-16T04:36:00.363Z,988.01
2022-09-16T04:37:00.350Z,987.97
2022-09-16T04:38:00.333Z,987.97
2022-09-16T04:39:00.314Z,987.97
2022-09-16T04:40:04.398Z,987.97
2022-09-16T04:41:00.283Z,987.95
2022-09-16T04:42:00.272Z,987.97
2022-09-16T04:43:00.255Z,988.00
2022-09-16T04:44:00.237Z,987.96
2022-09-16T04:45:00.221Z,987.97
2022-09-16T04:46:00.294Z,988.02
2022-09-16T04:47:00.190Z,987.97
2022-09-16T04:48:00.174Z,988.05
2022-09-16T04:49:00.162Z,988.01
2022-09-16T04:50:00.159Z,988.01
2022-09-16T04:51:00.128Z,988.01
2022-09-16T04:52:00.111Z,988.01
2022-09-16T04:53:00.097Z,988.01
2022-09-16T04:54:00.092Z,988.04
2022-09-16T04:55:00.069Z,988.04
2022-09-16T04:56:00.075Z,988.07
2022-09-16T04:57:00.032Z,987.98
2022-09-16T04:58:00.019Z,987.97
2022-09-16T04:59:00.002Z,987.99
2022-09-16T04:59:59.989Z,987.99
2022-09-16T05:00:59.973Z,987.98
2022-09-16T05:02:00.014Z,988.01
2022-09-16T05:02:59.997Z,987.96
2022-09-16T05:03:59.970Z,987.95
2022-09-16T05:04:59.909Z,988.00
2022-09-16T05:05:59.899Z,987.98
2022-09-16T05:06:59.876Z,987.99
2022-09-16T05:07:59.865Z,988.00
2022-09-16T05:08:59.849Z,988.01
2022-09-16T05:09:59.832Z,987.97
2022-09-16T05:10:59.817Z,988.00
2022-09-16T05:11:59.800Z,987.96
2022-09-16T05:12:59.783Z,987.98
2022-09-16T05:13:59.772Z,988.01
2022-09-16T05:14:59.766Z,987.97
2022-09-16T05:15:59.786Z,987.99
2022-09-16T05:16:59.720Z,987.96
2022-09-16T05:17:59.707Z,987.96
2022-09-16T05:18:59.691Z,987.95
2022-09-16T05:19:59.677Z,987.91
2022-09-16T05:20:59.659Z,987.91
2022-09-16T05:21:59.645Z,987.94
2022-09-16T05:22:59.631Z,987.94
2022-09-16T05:23:59.734Z,987.93
2022-09-16T05:24:59.599Z,987.97
2022-09-16T05:25:59.678Z,987.90
2022-09-16T05:26:59.564Z,987.90
2022-09-16T05:27:59.550Z,987.95
2022-09-16T05:28:59.535Z,987.94
2022-09-16T05:29:59.519Z,987.98
2022-09-16T05:30:59.567Z,987.99
2022-09-16T05:31:59.488Z,988.00
2022-09-16T05:32:59.470Z,987.98
2022-09-16T05:33:59.455Z,987.97
2022-09-16T05:34:59.445Z,987.98
2022-09-16T05:35:59.425Z,988.00
2022-09-16T05:36:59.415Z,988.00
2022-09-16T05:37:59.394Z,987.98
2022-09-16T05:39:25.731Z,987.99
2022-09-16T05:39:59.403Z,988.01
2022-09-16T05:40:59.345Z,988.05
2022-09-16T05:41:59.433Z,988.05
2022-09-16T05:42:59.325Z,988.03
2022-09-16T05:43:59.300Z,988.01
2022-09-16T05:44:59.283Z,988.02
2022-09-16T05:45:59.338Z,987.98
2022-09-16T05:46:59.258Z,988.04
2022-09-16T05:47:59.243Z,988.01
2022-09-16T05:48:59.221Z,988.04
2022-09-16T05:49:59.214Z,988.05
2022-09-16T05:50:59.189Z,988.03
2022-09-16T05:51:59.178Z,988.09
2022-09-16T05:52:59.160Z,988.07
2022-09-16T05:53:59.148Z,988.05
2022-09-16T05:54:59.134Z,988.11
2022-09-16T05:55:59.121Z,988.07
2022-09-16T05:57:01.256Z,988.09
2022-09-16T05:57:59.181Z,988.07
2022-09-16T05:58:59.064Z,988.09
2022-09-16T05:59:59.052Z,988.10
2022-09-16T06:00:59.038Z,988.12
2022-09-16T06:01:59.041Z,988.07
2022-09-16T06:02:59.020Z,988.05
2022-09-16T06:03:58.991Z,988.16
2022-09-16T06:04:58.974Z,988.17
2022-09-16T06:05:58.959Z,988.16
2022-09-16T06:06:58.940Z,988.17
2022-09-16T06:07:58.929Z,988.15
2022-09-16T06:08:58.916Z,988.14
2022-09-16T06:09:58.898Z,988.13
2022-09-16T06:10:58.881Z,988.14
2022-09-16T06:12:02.274Z,988.09
2022-09-16T06:12:58.852Z,988.11
2022-09-16T06:13:58.932Z,988.13
2022-09-16T06:14:58.818Z,988.14
2022-09-16T06:15:58.829Z,988.09
2022-09-16T06:16:58.789Z,988.14
2022-09-16T06:18:02.912Z,988.13
2022-09-16T06:18:58.757Z,988.13
2022-09-16T06:19:58.750Z,988.12
2022-09-16T06:20:58.726Z,988.11
2022-09-16T06:21:58.712Z,988.10
2022-09-16T06:22:58.708Z,988.11
2022-09-16T06:23:58.683Z,988.14
2022-09-16T06:24:58.663Z,988.11
2022-09-16T06:25:58.652Z,988.09
2022-09-16T06:26:58.632Z,988.09
2022-09-16T06:27:58.623Z,988.08
2022-09-16T06:28:58.601Z,988.04
2022-09-16T06:29:58.690Z,988.02
2022-09-16T06:30:58.609Z,988.04
2022-09-16T06:31:58.560Z,988.04
2022-09-16T06:32:58.542Z,988.07
2022-09-16T06:33:58.535Z,988.05
2022-09-16T06:34:58.512Z,988.06
2022-09-16T06:35:58.495Z,988.07
2022-09-16T06:36:58.482Z,988.02
2022-09-16T06:37:58.465Z,988.05
2022-09-16T06:38:58.447Z,988.05
2022-09-16T06:39:58.477Z,988.05
2022-09-16T06:40:58.425Z,988.08
2022-09-16T06:41:58.406Z,988.04
2022-09-16T06:43:00.296Z,988.06
2022-09-16T06:43:58.371Z,988.06
2022-09-16T06:44:58.360Z,987.99
2022-09-16T06:45:58.486Z,988.01
2022-09-16T06:46:58.328Z,987.99
2022-09-16T06:47:58.311Z,988.01
2022-09-16T06:49:00.383Z,988.06
2022-09-16T06:49:58.284Z,988.03
2022-09-16T06:50:58.264Z,988.02
2022-09-16T06:51:58.252Z,988.03
2022-09-16T06:52:58.236Z,988.03
2022-09-16T06:53:58.219Z,987.98
2022-09-16T06:54:58.202Z,988.01
2022-09-16T06:55:58.189Z,987.99
2022-09-16T06:56:58.180Z,988.02
2022-09-16T06:57:58.169Z,988.04
2022-09-16T06:58:58.139Z,988.00
2022-09-16T06:59:58.127Z,988.02
2022-09-16T07:00:58.186Z,988.00
2022-09-16T07:01:58.241Z,988.03
2022-09-16T07:02:58.081Z,987.99
2022-09-16T07:03:58.064Z,987.97
2022-09-16T07:04:58.049Z,987.97
2022-09-16T07:05:58.040Z,987.99
2022-09-16T07:07:09.339Z,987.97
2022-09-16T07:07:58.006Z,987.98
2022-09-16T07:08:57.991Z,987.95
2022-09-16T07:09:57.997Z,987.96
2022-09-16T07:10:57.957Z,987.90
2022-09-16T07:11:57.948Z,987.96
2022-09-16T07:12:57.930Z,987.94
2022-09-16T07:13:57.916Z,987.96
2022-09-16T07:14:57.903Z,987.98
2022-09-16T07:16:12.350Z,987.95
2022-09-16T07:16:57.883Z,987.95
2022-09-16T07:17:57.958Z,987.98
2022-09-16T07:19:00.962Z,987.94
2022-09-16T07:19:57.832Z,987.97
2022-09-16T07:20:57.810Z,987.94
2022-09-16T07:21:57.797Z,987.98
2022-09-16T07:22:57.781Z,988.00
2022-09-16T07:23:57.822Z,988.01
2022-09-16T07:24:57.754Z,988.00
2022-09-16T07:25:57.739Z,988.01
2022-09-16T07:26:57.722Z,988.02
2022-09-16T07:27:57.709Z,988.00
2022-09-16T07:28:57.693Z,988.01
2022-09-16T07:30:00.131Z,988.00
2022-09-16T07:30:57.727Z,988.02
2022-09-16T07:31:57.667Z,988.05
2022-09-16T07:32:57.635Z,988.04
2022-09-16T07:34:02.805Z,988.05
2022-09-16T07:34:57.611Z,988.05
2022-09-16T07:35:57.592Z,988.07
2022-09-16T07:36:57.591Z,988.09
2022-09-16T07:37:57.567Z,988.08
2022-09-16T07:38:57.614Z,988.09
2022-09-16T07:39:57.578Z,988.12
2022-09-16T07:40:57.516Z,988.11
2022-09-16T07:41:57.503Z,988.11
2022-09-16T07:42:57.487Z,988.16
2022-09-16T07:43:57.475Z,988.10
2022-09-16T07:44:57.460Z,988.12
2022-09-16T07:45:57.492Z,988.10
2022-09-16T07:46:57.429Z,988.14
2022-09-16T07:47:57.418Z,988.12
2022-09-16T07:48:57.485Z,988.07
2022-09-16T07:49:57.490Z,988.13
2022-09-16T07:50:57.371Z,988.15
2022-09-16T07:51:57.360Z,988.11
2022-09-16T07:52:57.355Z,988.11
2022-09-16T07:53:57.353Z,988.14
2022-09-16T07:54:57.315Z,988.15
2022-09-16T07:55:57.306Z,988.10
2022-09-16T07:56:57.285Z,988.17
2022-09-16T07:57:57.273Z,988.09
2022-09-16T07:58:57.420Z,988.15
2022-09-16T07:59:57.242Z,988.10
2022-09-16T08:01:01.938Z,988.17
2022-09-16T08:01:57.296Z,988.13
2022-09-16T08:02:57.298Z,988.10
2022-09-16T08:03:57.188Z,988.16
2022-09-16T08:04:57.182Z,988.15
2022-09-16T08:05:57.263Z,988.09
2022-09-16T08:06:57.145Z,988.09
2022-09-16T08:07:57.131Z,988.14
2022-09-16T08:08:59.769Z,988.12
2022-09-16T08:09:57.101Z,988.15
2022-09-16T08:10:57.087Z,988.14
2022-09-16T08:11:57.073Z,988.18
2022-09-16T08:12:57.062Z,988.25
2022-09-16T08:13:57.061Z,988.19
2022-09-16T08:14:57.036Z,988.18
2022-09-16T08:15:57.017Z,988.18
2022-09-16T08:16:57.072Z,988.20
2022-09-16T08:17:56.991Z,988.18
2022-09-16T08:18:56.982Z,988.23
2022-09-16T08:19:56.974Z,988.25
2022-09-16T08:20:56.959Z,988.23
2022-09-16T08:21:57.029Z,988.22
2022-09-16T08:22:58.031Z,988.22
2022-09-16T08:23:56.980Z,988.25
2022-09-16T08:24:56.891Z,988.23
2022-09-16T08:25:56.884Z,988.25
2022-09-16T08:27:56.857Z,988.26
2022-09-16T08:29:08.535Z,988.25
2022-09-16T08:29:56.830Z,988.25
2022-09-16T08:30:56.817Z,988.23
2022-09-16T08:31:56.849Z,988.26
2022-09-16T08:32:56.784Z,988.25
2022-09-16T08:33:56.773Z,988.26
2022-09-16T08:34:56.760Z,988.26
2022-09-16T08:35:56.754Z,988.25
2022-09-16T08:36:56.737Z,988.26
2022-09-16T08:37:56.818Z,988.26
2022-09-16T08:38:56.907Z,988.32
2022-09-16T08:39:56.709Z,988.30
2022-09-16T08:40:56.684Z,988.29
2022-09-16T08:41:56.666Z,988.28
2022-09-16T08:42:56.653Z,988.31
2022-09-16T08:43:56.707Z,988.27
2022-09-16T08:44:56.627Z,988.32
2022-09-16T08:45:56.643Z,988.33
2022-09-16T08:46:56.601Z,988.33
2022-09-16T08:47:56.584Z,988.32
2022-09-16T08:48:56.623Z,988.35
2022-09-16T08:49:56.560Z,988.33
2022-09-16T08:50:56.548Z,988.35
2022-09-16T08:51:56.535Z,988.35
2022-09-16T08:52:56.521Z,988.34
2022-09-16T08:53:56.622Z,988.41
2022-09-16T08:54:56.497Z,988.34
2022-09-16T08:55:56.480Z,988.36
2022-09-16T08:56:56.475Z,988.41
2022-09-16T08:57:56.499Z,988.38
2022-09-16T08:58:56.448Z,988.32
2022-09-16T08:59:56.429Z,988.37
2022-09-16T09:00:56.510Z,988.35
2022-09-16T09:01:56.741Z,988.39
2022-09-16T09:02:56.573Z,988.34
2022-09-16T09:03:56.384Z,988.33
2022-09-16T09:04:56.372Z,988.35
2022-09-16T09:05:56.360Z,988.35
2022-09-16T09:06:56.348Z,988.34
2022-09-16T09:07:56.354Z,988.32
2022-09-16T09:08:56.452Z,988.35
2022-09-16T09:09:56.429Z,988.36
2022-09-16T09:10:56.304Z,988.36
2022-09-16T09:11:57.069Z,988.35
2022-09-16T09:12:56.683Z,988.30
2022-09-16T09:13:56.273Z,988.38
2022-09-16T09:14:56.265Z,988.33
2022-09-16T09:15:56.248Z,988.33
2022-09-16T09:16:56.239Z,988.29
2022-09-16T09:17:56.230Z,988.27
2022-09-16T09:18:56.219Z,988.23
2022-09-16T09:19:56.211Z,988.20
2022-09-16T09:20:56.200Z,988.25
2022-09-16T09:21:56.188Z,988.20
2022-09-16T09:22:56.179Z,988.15
2022-09-16T09:23:56.169Z,988.19
2022-09-16T09:24:57.089Z,988.21
2022-09-16T09:25:56.258Z,988.14
2022-09-16T09:26:56.141Z,988.16
2022-09-16T09:27:56.130Z,988.17
2022-09-16T09:28:56.123Z,988.18
2022-09-16T09:29:56.112Z,988.16
2022-09-16T09:30:56.101Z,988.12
2022-09-16T09:31:56.182Z,988.19
2022-09-16T09:32:56.150Z,988.16
2022-09-16T09:33:56.074Z,988.20
2022-09-16T09:34:56.063Z,988.17
2022-09-16T09:35:56.051Z,988.19
2022-09-16T09:36:56.049Z,988.16
2022-09-16T09:37:56.031Z,988.20
2022-09-16T09:38:56.022Z,988.21
2022-09-16T09:39:56.047Z,988.23
2022-09-16T09:40:56.001Z,988.14
2022-09-16T09:41:56.096Z,988.16
2022-09-16T09:42:55.980Z,988.22
2022-09-16T09:43:56.013Z,988.23
2022-09-16T09:44:58.436Z,988.21
2022-09-16T09:45:55.993Z,988.19
2022-09-16T09:46:55.952Z,988.21
2022-09-16T09:47:55.921Z,988.21
2022-09-16T09:48:55.913Z,988.20
2022-09-16T09:49:55.898Z,988.19
2022-09-16T09:50:55.890Z,988.21
2022-09-16T09:51:55.870Z,988.23
2022-09-16T09:52:55.861Z,988.20
2022-09-16T09:53:55.850Z,988.20
2022-09-16T09:54:55.836Z,988.20
2022-09-16T09:55:55.823Z,988.23
2022-09-16T09:56:55.832Z,988.13
2022-09-16T09:57:55.912Z,988.19
2022-09-16T09:58:55.847Z,988.15
2022-09-16T09:59:55.776Z,988.09
2022-09-16T10:00:55.882Z,988.17
2022-09-16T10:01:55.782Z,988.11
2022-09-16T10:02:55.742Z,988.05
2022-09-16T10:03:55.729Z,988.04
2022-09-16T10:04:55.716Z,988.07
2022-09-16T10:05:55.708Z,988.06
2022-09-16T10:06:55.788Z,988.14
2022-09-16T10:07:55.679Z,988.10
2022-09-16T10:08:55.694Z,988.08
2022-09-16T10:09:55.671Z,988.08
2022-09-16T10:10:55.647Z,988.04
2022-09-16T10:11:55.630Z,988.09
2022-09-16T10:12:55.618Z,988.07
2022-09-16T10:13:55.808Z,988.09
2022-09-16T10:14:55.592Z,988.09
2022-09-16T10:15:55.884Z,988.05
2022-09-16T10:16:55.579Z,988.04
2022-09-16T10:17:55.554Z,988.07
2022-09-16T10:18:55.543Z,988.05
2022-09-16T10:19:55.533Z,988.04
2022-09-16T10:20:55.520Z,988.04
2022-09-16T10:21:55.506Z,988.03
2022-09-16T10:22:55.493Z,987.96
2022-09-16T10:23:55.497Z,988.02
2022-09-16T10:24:55.479Z,987.97
2022-09-16T10:25:55.475Z,987.97
2022-09-16T10:26:55.447Z,987.97
2022-09-16T10:27:55.435Z,988.02
2022-09-16T10:28:55.579Z,988.00
2022-09-16T10:29:55.524Z,988.03
2022-09-16T10:30:55.413Z,987.98
2022-09-16T10:31:55.478Z,987.93
2022-09-16T10:32:55.382Z,987.95
2022-09-16T10:33:55.371Z,987.90
2022-09-16T10:34:55.366Z,987.84
2022-09-16T10:35:55.346Z,987.86
2022-09-16T10:36:55.336Z,987.94
2022-09-16T10:37:55.325Z,987.92
2022-09-16T10:38:55.382Z,987.87
2022-09-16T10:39:55.361Z,987.82
2022-09-16T10:40:55.295Z,987.84
2022-09-16T10:41:55.284Z,987.78
2022-09-16T10:42:55.283Z,987.80
2022-09-16T10:43:55.263Z,987.84
2022-09-16T10:44:55.253Z,987.77
2022-09-16T10:45:55.413Z,987.84
2022-09-16T10:46:55.236Z,987.86
2022-09-16T10:47:55.426Z,987.82
2022-09-16T10:48:55.225Z,987.80
2022-09-16T10:49:55.299Z,987.81
2022-09-16T10:50:55.189Z,987.79
2022-09-16T10:51:55.177Z,987.81
2022-09-16T10:52:55.182Z,987.79
2022-09-16T10:53:55.289Z,987.78
2022-09-16T10:54:55.151Z,987.82
2022-09-16T10:55:55.131Z,987.81
2022-09-16T10:56:55.132Z,987.84
2022-09-16T10:57:55.113Z,987.84
2022-09-16T10:58:55.103Z,987.84
2022-09-16T10:59:55.085Z,987.81
2022-09-16T11:00:55.343Z,987.83
2022-09-16T11:01:55.695Z,987.86
2022-09-16T11:02:55.058Z,987.86
2022-09-16T11:03:55.043Z,987.87
2022-09-16T11:04:55.028Z,987.83
2022-09-16T11:05:55.016Z,987.86
2022-09-16T11:06:55.004Z,987.84
2022-09-16T11:07:54.991Z,987.85
2022-09-16T11:08:55.002Z,987.82
2022-09-16T11:09:54.966Z,987.79
2022-09-16T11:10:54.956Z,987.78
2022-09-16T11:11:54.947Z,987.82
2022-09-16T11:12:54.932Z,987.79
2022-09-16T11:13:54.920Z,987.77
2022-09-16T11:14:54.907Z,987.78
2022-09-16T11:15:54.932Z,987.83
2022-09-16T11:16:54.886Z,987.81
2022-09-16T11:17:54.985Z,987.80
2022-09-16T11:18:54.862Z,987.76
2022-09-16T11:19:54.847Z,987.78
2022-09-16T11:20:54.837Z,987.78
2022-09-16T11:21:54.829Z,987.79
2022-09-16T11:22:54.814Z,987.80
2022-09-16T11:23:54.803Z,987.81
2022-09-16T11:24:54.792Z,987.84
2022-09-16T11:25:54.777Z,987.84
2022-09-16T11:26:54.770Z,987.85
2022-09-16T11:27:54.767Z,987.89
2022-09-16T11:28:54.746Z,987.93
2022-09-16T11:29:54.732Z,987.91
2022-09-16T11:30:54.720Z,987.89
2022-09-16T11:31:54.843Z,987.91
2022-09-16T11:32:55.585Z,987.86
2022-09-16T11:33:54.797Z,987.86
2022-09-16T11:34:54.675Z,987.89
2022-09-16T11:35:54.662Z,987.89
2022-09-16T11:36:54.654Z,987.91
2022-09-16T11:37:54.643Z,987.89
2022-09-16T11:38:54.630Z,987.91
2022-09-16T11:39:54.699Z,987.90
2022-09-16T11:40:54.610Z,987.89
2022-09-16T11:41:54.597Z,987.89
2022-09-16T11:42:54.585Z,987.85
2022-09-16T11:43:54.590Z,987.88
2022-09-16T11:44:54.581Z,987.87
2022-09-16T11:45:54.559Z,987.83
2022-09-16T11:46:54.583Z,987.90
2022-09-16T11:47:54.534Z,987.89
2022-09-16T11:48:54.524Z,987.87
2022-09-16T11:49:54.625Z,987.90
2022-09-16T11:50:54.500Z,987.92
2022-09-16T11:51:54.489Z,987.86
2022-09-16T11:52:56.536Z,987.86
2022-09-16T11:53:54.975Z,987.87
2022-09-16T11:54:54.458Z,987.89
2022-09-16T11:55:54.450Z,987.91
2022-09-16T11:56:54.439Z,987.89
2022-09-16T11:57:54.428Z,987.90
2022-09-16T11:58:54.422Z,987.87
2022-09-16T11:59:54.410Z,987.89
2022-09-16T12:00:54.399Z,987.86
2022-09-16T12:01:54.431Z,987.86
2022-09-16T12:02:54.424Z,987.78
2022-09-16T12:03:54.369Z,987.76
2022-09-16T12:04:54.368Z,987.76
2022-09-16T12:05:54.477Z,987.72
2022-09-16T12:06:54.341Z,987.74
2022-09-16T12:07:54.338Z,987.74
2022-09-16T12:08:54.326Z,987.73
2022-09-16T12:09:54.318Z,987.72
2022-09-16T12:10:54.305Z,987.73
2022-09-16T12:11:54.300Z,987.68
2022-09-16T12:12:54.307Z,987.63
2022-09-16T12:14:05.532Z,987.66
2022-09-16T12:14:54.269Z,987.67
2022-09-16T12:15:54.261Z,987.66
2022-09-16T12:16:54.255Z,987.65
2022-09-16T12:17:54.241Z,987.63
2022-09-16T12:18:54.234Z,987.63
2022-09-16T12:19:54.226Z,987.61
2022-09-16T12:20:54.217Z,987.63
2022-09-16T12:21:57.810Z,987.62
2022-09-16T12:22:54.202Z,987.62
2022-09-16T12:23:54.194Z,987.61
2022-09-16T12:24:54.178Z,987.67
2022-09-16T12:25:54.170Z,987.67
2022-09-16T12:26:54.163Z,987.54
2022-09-16T12:27:54.151Z,987.58
2022-09-16T12:28:54.147Z,987.59